createdAt,value
2018-04-27T00:00:42.151Z,65.81
2018-04-27T00:01:42.087Z,65.72
2018-04-27T00:02:42.024Z,66.39
2018-04-27T00:03:41.957Z,66.39
2018-04-27T00:04:41.912Z,66.39
2018-04-27T00:05:41.836Z,66.68
2018-04-27T00:06:41.786Z,66.68
2018-04-27T00:07:41.723Z,66.58
2018-04-27T00:08:41.641Z,66.77
2018-04-27T00:09:41.571Z,66.49
2018-04-27T00:10:41.524Z,66.49
2018-04-27T00:11:41.457Z,66.68
2018-04-27T00:12:41.395Z,66.30
2018-04-27T00:13:41.330Z,66.77
2018-04-27T00:14:41.279Z,67.32
2018-04-27T00:15:41.205Z,67.41
2018-04-27T00:16:41.122Z,67.70
2018-04-27T00:17:41.088Z,67.70
2018-04-27T00:18:41.010Z,67.74
2018-04-27T00:19:40.930Z,67.32
2018-04-27T00:20:40.889Z,67.54
2018-04-27T00:21:40.806Z,67.22
2018-04-27T00:22:40.755Z,67.35
2018-04-27T00:23:40.691Z,67.22
2018-04-27T00:24:40.620Z,67.22
2018-04-27T00:25:40.549Z,67.41
2018-04-27T00:26:40.477Z,67.61
2018-04-27T00:27:40.448Z,67.64
2018-04-27T00:28:40.365Z,67.80
2018-04-27T00:29:40.285Z,67.54
2018-04-27T00:30:40.242Z,67.16
2018-04-27T00:31:40.159Z,67.51
2018-04-27T00:32:40.093Z,67.51
2018-04-27T00:33:40.027Z,68.08
2018-04-27T00:34:39.975Z,67.90
2018-04-27T00:35:39.909Z,67.99
2018-04-27T00:36:39.864Z,67.61
2018-04-27T00:37:39.786Z,67.13
2018-04-27T00:38:39.713Z,67.41
2018-04-27T00:39:39.645Z,67.41
2018-04-27T00:40:39.598Z,67.22
2018-04-27T00:41:39.535Z,67.32
2018-04-27T00:42:39.449Z,67.41
2018-04-27T00:43:39.384Z,67.41
2018-04-27T00:44:39.320Z,67.25
2018-04-27T00:45:39.256Z,67.41
2018-04-27T00:46:39.211Z,67.61
2018-04-27T00:47:39.145Z,67.51
2018-04-27T00:48:39.067Z,67.22
2018-04-27T00:49:39.004Z,67.51
2018-04-27T00:50:38.934Z,67.80
2018-04-27T00:51:38.891Z,67.61
2018-04-27T00:52:38.808Z,68.28
2018-04-27T00:53:38.755Z,68.28
2018-04-27T00:54:38.671Z,68.28
2018-04-27T00:55:38.616Z,68.08
2018-04-27T00:56:38.543Z,68.76
2018-04-27T00:57:38.486Z,68.76
2018-04-27T00:58:38.425Z,69.53
2018-04-27T00:59:38.350Z,69.20
2018-04-27T01:00:38.296Z,69.01
2018-04-27T01:01:38.235Z,69.11
2018-04-27T01:02:38.160Z,68.85
2018-04-27T01:03:38.096Z,68.85
2018-04-27T01:04:38.048Z,68.24
2018-04-27T01:05:37.997Z,68.15
2018-04-27T01:06:37.914Z,67.09
2018-04-27T01:07:37.857Z,67.47
2018-04-27T01:08:37.769Z,64.85
2018-04-27T01:09:37.715Z,63.79
2018-04-27T01:10:37.660Z,63.03
2018-04-27T01:11:37.584Z,62.65
2018-04-27T01:12:37.530Z,62.26
2018-04-27T01:13:37.475Z,61.78
2018-04-27T01:14:37.383Z,61.21
2018-04-27T01:15:37.335Z,60.92
2018-04-27T01:16:37.251Z,61.21
2018-04-27T01:17:37.212Z,61.59
2018-04-27T01:18:37.127Z,62.26
2018-04-27T01:19:37.078Z,62.26
2018-04-27T01:20:37.010Z,62.68
2018-04-27T01:21:36.933Z,62.68
2018-04-27T01:22:36.869Z,62.68
2018-04-27T01:23:36.804Z,62.68
2018-04-27T01:24:36.759Z,62.68
2018-04-27T01:25:36.674Z,62.48
2018-04-27T01:26:36.633Z,62.68
2018-04-27T01:27:36.562Z,62.48
2018-04-27T01:28:36.477Z,62.68
2018-04-27T01:29:36.408Z,62.77
2018-04-27T01:30:36.361Z,62.68
2018-04-27T01:31:36.289Z,62.58
2018-04-27T01:32:36.313Z,62.58
2018-04-27T01:33:36.163Z,62.48
2018-04-27T01:34:36.107Z,62.87
2018-04-27T01:35:36.022Z,62.77
2018-04-27T01:36:35.963Z,62.58
2018-04-27T01:37:35.910Z,62.68
2018-04-27T01:38:35.832Z,62.68
2018-04-27T01:39:35.764Z,62.68
2018-04-27T01:40:35.711Z,62.87
2018-04-27T01:41:35.631Z,62.96
2018-04-27T01:42:35.561Z,62.68
2018-04-27T01:43:35.501Z,62.77
2018-04-27T01:44:35.432Z,62.68
2018-04-27T01:45:35.380Z,62.68
2018-04-27T01:46:35.308Z,62.96
2018-04-27T01:47:35.259Z,62.96
2018-04-27T01:48:35.178Z,62.48
2018-04-27T01:49:35.128Z,62.87
2018-04-27T01:50:35.072Z,62.68
2018-04-27T01:51:34.985Z,62.68
2018-04-27T01:52:34.958Z,62.77
2018-04-27T01:53:34.977Z,62.87
2018-04-27T01:54:34.893Z,62.87
2018-04-27T01:55:34.733Z,62.77
2018-04-27T01:56:34.696Z,62.87
2018-04-27T01:57:34.608Z,62.29
2018-04-27T01:58:34.535Z,62.19
2018-04-27T01:59:34.511Z,62.29
2018-04-27T02:00:34.419Z,62.19
2018-04-27T02:01:34.335Z,61.62
2018-04-27T02:02:34.278Z,61.91
2018-04-27T02:03:34.218Z,62.01
2018-04-27T02:04:34.160Z,61.91
2018-04-27T02:05:34.075Z,62.01
2018-04-27T02:06:34.024Z,61.91
2018-04-27T02:07:33.942Z,60.82
2018-04-27T02:08:33.881Z,59.29
2018-04-27T02:09:33.829Z,58.14
2018-04-27T02:10:33.749Z,58.14
2018-04-27T02:11:33.712Z,57.75
2018-04-27T02:12:33.617Z,56.51
2018-04-27T02:13:33.572Z,56.41
2018-04-27T02:14:33.489Z,56.12
2018-04-27T02:15:33.429Z,56.41
2018-04-27T02:16:33.376Z,56.41
2018-04-27T02:17:33.321Z,55.93
2018-04-27T02:18:33.230Z,56.31
2018-04-27T02:19:33.167Z,56.41
2018-04-27T02:20:33.097Z,56.22
2018-04-27T02:21:33.056Z,56.44
2018-04-27T02:22:32.982Z,56.70
2018-04-27T02:23:32.930Z,55.74
2018-04-27T02:24:32.854Z,55.07
2018-04-27T02:25:32.788Z,54.58
2018-04-27T02:26:32.715Z,54.21
2018-04-27T02:27:32.645Z,54.68
2018-04-27T02:28:32.586Z,54.49
2018-04-27T02:29:32.509Z,53.91
2018-04-27T02:30:32.467Z,54.11
2018-04-27T02:31:32.377Z,53.63
2018-04-27T02:32:32.345Z,52.38
2018-04-27T02:33:32.250Z,51.14
2018-04-27T02:34:32.219Z,50.56
2018-04-27T02:35:32.145Z,49.79
2018-04-27T02:36:32.071Z,49.79
2018-04-27T02:37:32.006Z,49.12
2018-04-27T02:38:31.934Z,49.21
2018-04-27T02:39:31.877Z,48.44
2018-04-27T02:40:31.819Z,48.25
2018-04-27T02:41:31.755Z,48.35
2018-04-27T02:42:31.683Z,47.20
2018-04-27T02:43:31.622Z,45.93
2018-04-27T02:44:31.564Z,46.03
2018-04-27T02:45:31.473Z,45.86
2018-04-27T02:46:31.446Z,46.43
2018-04-27T02:47:31.347Z,47.49
2018-04-27T02:48:31.277Z,48.16
2018-04-27T02:49:31.225Z,47.97
2018-04-27T02:50:31.148Z,47.97
2018-04-27T02:51:31.091Z,47.87
2018-04-27T02:52:31.037Z,48.25
2018-04-27T02:53:30.982Z,47.97
2018-04-27T02:54:30.904Z,48.35
2018-04-27T02:55:30.840Z,48.16
2018-04-27T02:56:30.755Z,47.10
2018-04-27T02:57:30.705Z,47.01
2018-04-27T02:58:30.658Z,47.10
2018-04-27T02:59:30.557Z,47.20
2018-04-27T03:00:30.517Z,46.81
2018-04-27T03:01:30.452Z,46.31
2018-04-27T03:02:30.375Z,45.37
2018-04-27T03:03:30.298Z,45.16
2018-04-27T03:04:30.273Z,45.54
2018-04-27T03:05:30.190Z,45.57
2018-04-27T03:06:30.096Z,45.47
2018-04-27T03:07:30.040Z,45.86
2018-04-27T03:08:29.972Z,45.67
2018-04-27T03:09:29.920Z,45.67
2018-04-27T03:10:29.860Z,45.28
2018-04-27T03:11:29.800Z,44.90
2018-04-27T03:12:29.731Z,44.13
2018-04-27T03:13:29.663Z,45.09
2018-04-27T03:14:29.600Z,42.00
2018-04-27T03:15:29.534Z,35.46
2018-04-27T03:16:29.470Z,32.01
2018-04-27T03:17:29.381Z,30.86
2018-04-27T03:18:29.322Z,31.92
2018-04-27T03:19:29.252Z,32.78
2018-04-27T03:20:29.191Z,34.04
2018-04-27T03:21:29.137Z,32.59
2018-04-27T03:22:29.070Z,32.68
2018-04-27T03:23:29.016Z,32.20
2018-04-27T03:24:28.935Z,31.82
2018-04-27T03:25:28.901Z,31.82
2018-04-27T03:26:28.829Z,32.21
2018-04-27T03:27:28.742Z,31.53
2018-04-27T03:28:28.696Z,32.60
2018-04-27T03:29:28.606Z,34.14
2018-04-27T03:30:28.567Z,33.06
2018-04-27T03:31:28.501Z,32.39
2018-04-27T03:32:28.419Z,32.10
2018-04-27T03:33:28.346Z,32.31
2018-04-27T03:34:28.288Z,32.21
2018-04-27T03:35:28.214Z,31.05
2018-04-27T03:36:28.145Z,30.68
2018-04-27T03:37:28.085Z,30.20
2018-04-27T03:38:28.026Z,28.27
2018-04-27T03:39:27.966Z,29.23
2018-04-27T03:40:27.886Z,29.44
2018-04-27T03:41:27.848Z,30.49
2018-04-27T03:42:27.744Z,29.90
2018-04-27T03:43:27.683Z,30.29
2018-04-27T03:44:27.644Z,29.91
2018-04-27T03:45:27.620Z,28.08
2018-04-27T03:46:27.520Z,28.48
2018-04-27T03:47:27.417Z,28.27
2018-04-27T03:48:27.370Z,29.91
2018-04-27T03:49:27.306Z,30.68
2018-04-27T03:50:27.249Z,30.49
2018-04-27T03:51:27.157Z,30.87
2018-04-27T03:52:27.123Z,30.78
2018-04-27T03:53:27.031Z,30.49
2018-04-27T03:54:26.987Z,31.07
2018-04-27T03:55:26.903Z,31.07
2018-04-27T03:56:26.847Z,30.78
2018-04-27T03:57:26.781Z,30.87
2018-04-27T03:58:26.715Z,31.74
2018-04-27T03:59:26.652Z,32.31
2018-04-27T04:00:26.597Z,32.98
2018-04-27T04:01:26.505Z,32.79
2018-04-27T04:02:26.443Z,32.41
2018-04-27T04:03:26.391Z,31.93
2018-04-27T04:04:26.329Z,32.12
2018-04-27T04:05:26.250Z,32.51
2018-04-27T04:06:26.175Z,32.79
2018-04-27T04:07:26.109Z,32.31
2018-04-27T04:08:26.076Z,32.12
2018-04-27T04:09:25.979Z,31.84
2018-04-27T04:10:25.914Z,29.23
2018-04-27T04:11:25.848Z,27.22
2018-04-27T04:12:25.808Z,27.41
2018-04-27T04:13:25.736Z,27.70
2018-04-27T04:14:25.655Z,29.42
2018-04-27T04:15:25.602Z,30.76
2018-04-27T04:16:25.523Z,28.75
2018-04-27T04:17:25.458Z,24.91
2018-04-27T04:18:25.401Z,25.68
2018-04-27T04:19:25.353Z,22.70
2018-04-27T04:20:25.279Z,19.92
2018-04-27T04:21:25.207Z,19.06
2018-04-27T04:22:25.120Z,20.02
2018-04-27T04:23:25.087Z,21.07
2018-04-27T04:24:25.018Z,21.17
2018-04-27T04:25:24.942Z,22.32
2018-04-27T04:26:24.870Z,24.90
2018-04-27T04:27:24.821Z,26.54
2018-04-27T04:28:24.748Z,27.31
2018-04-27T04:29:24.679Z,27.98
2018-04-27T04:30:24.631Z,27.98
2018-04-27T04:31:24.563Z,23.27
2018-04-27T04:32:24.502Z,20.69
2018-04-27T04:33:24.404Z,20.12
2018-04-27T04:34:24.347Z,21.36
2018-04-27T04:35:24.278Z,22.03
2018-04-27T04:36:24.199Z,23.57
2018-04-27T04:37:24.153Z,24.90
2018-04-27T04:38:24.172Z,26.16
2018-04-27T04:39:24.017Z,26.63
2018-04-27T04:40:23.959Z,27.79
2018-04-27T04:41:23.896Z,28.08
2018-04-27T04:42:23.807Z,29.04
2018-04-27T04:43:23.773Z,29.52
2018-04-27T04:44:23.693Z,30.19
2018-04-27T04:45:23.614Z,30.76
2018-04-27T04:46:23.543Z,31.05
2018-04-27T04:47:23.511Z,31.05
2018-04-27T04:48:23.429Z,31.92
2018-04-27T04:49:23.373Z,32.97
2018-04-27T04:50:23.295Z,32.59
2018-04-27T04:51:23.215Z,28.92
2018-04-27T04:52:23.231Z,24.23
2018-04-27T04:53:23.102Z,22.51
2018-04-27T04:54:23.040Z,21.36
2018-04-27T04:55:22.958Z,20.02
2018-04-27T04:56:22.904Z,16.66
2018-04-27T04:57:22.858Z,15.13
2018-04-27T04:58:22.774Z,13.51
2018-04-27T04:59:22.685Z,11.88
2018-04-27T05:00:22.624Z,13.31
2018-04-27T05:01:22.582Z,14.17
2018-04-27T05:02:22.498Z,16.00
2018-04-27T05:03:22.437Z,17.62
2018-04-27T05:04:22.368Z,18.68
2018-04-27T05:05:22.316Z,17.72
2018-04-27T05:06:22.248Z,14.84
2018-04-27T05:07:22.184Z,14.56
2018-04-27T05:08:22.110Z,16.00
2018-04-27T05:09:22.050Z,16.86
2018-04-27T05:10:21.963Z,18.77
2018-04-27T05:11:21.931Z,19.16
2018-04-27T05:12:21.854Z,19.45
2018-04-27T05:13:21.788Z,17.14
2018-04-27T05:14:21.718Z,13.60
2018-04-27T05:15:21.664Z,9.39
2018-04-27T05:16:21.586Z,7.18
2018-04-27T05:17:21.509Z,7.76
2018-04-27T05:18:21.498Z,8.91
2018-04-27T05:19:21.375Z,10.63
2018-04-27T05:20:21.329Z,11.01
2018-04-27T05:21:21.264Z,9.96
2018-04-27T05:22:21.177Z,11.97
2018-04-27T05:23:21.117Z,8.81
2018-04-27T05:24:21.143Z,8.04
2018-04-27T05:25:21.005Z,8.43
2018-04-27T05:26:20.930Z,10.83
2018-04-27T05:27:20.853Z,10.16
2018-04-27T05:28:20.797Z,13.51
2018-04-27T05:29:20.716Z,14.95
2018-04-27T05:30:20.647Z,15.14
2018-04-27T05:31:20.603Z,17.73
2018-04-27T05:32:20.546Z,18.78
2018-04-27T05:33:20.460Z,18.30
2018-04-27T05:34:20.394Z,18.69
2018-04-27T05:35:20.337Z,19.65
2018-04-27T05:36:20.261Z,18.78
2018-04-27T05:37:20.194Z,18.21
2018-04-27T05:38:20.148Z,18.98
2018-04-27T05:39:20.080Z,19.26
2018-04-27T05:40:21.325Z,19.45
2018-04-27T05:41:19.946Z,19.84
2018-04-27T05:42:19.889Z,20.22
2018-04-27T05:43:19.796Z,20.71
2018-04-27T05:44:19.727Z,21.57
2018-04-27T05:45:19.694Z,22.44
2018-04-27T05:46:19.614Z,22.91
2018-04-27T05:47:19.536Z,22.53
2018-04-27T05:48:19.526Z,20.22
2018-04-27T05:49:19.415Z,18.98
2018-04-27T05:50:19.347Z,13.23
2018-04-27T05:51:19.277Z,8.33
2018-04-27T05:52:19.229Z,4.11
2018-04-27T05:53:19.176Z,3.74
2018-04-27T05:54:19.096Z,5.36
2018-04-27T05:55:19.017Z,5.36
2018-04-27T05:56:18.965Z,4.98
2018-04-27T05:57:18.927Z,5.75
2018-04-27T05:58:18.847Z,5.55
2018-04-27T05:59:18.750Z,3.55
2018-04-27T06:00:18.694Z,0.00
2018-04-27T06:01:18.624Z,0.00
2018-04-27T06:02:18.574Z,0.00
2018-04-27T06:03:18.496Z,0.00
2018-04-27T06:04:18.418Z,0.00
2018-04-27T06:05:18.356Z,0.00
2018-04-27T06:06:18.294Z,0.00
2018-04-27T06:07:18.226Z,0.00
2018-04-27T06:08:18.220Z,0.00
2018-04-27T06:09:18.118Z,0.00
2018-04-27T06:10:18.024Z,0.00
2018-04-27T06:11:17.975Z,0.00
2018-04-27T06:12:17.914Z,0.00
2018-04-27T06:13:17.857Z,0.00
2018-04-27T06:14:17.767Z,0.00
2018-04-27T06:15:17.717Z,0.00
2018-04-27T06:16:17.653Z,0.00
2018-04-27T06:17:17.588Z,0.00
2018-04-27T06:18:17.519Z,0.00
2018-04-27T06:19:17.453Z,2.20
2018-04-27T06:20:17.370Z,4.21
2018-04-27T06:21:17.304Z,5.55
2018-04-27T06:22:17.248Z,5.27
2018-04-27T06:23:17.180Z,6.13
2018-04-27T06:24:17.112Z,8.81
2018-04-27T06:25:17.070Z,10.26
2018-04-27T06:26:16.983Z,11.50
2018-04-27T06:27:16.926Z,13.23
2018-04-27T06:28:16.858Z,14.48
2018-04-27T06:29:16.789Z,15.34
2018-04-27T06:30:16.735Z,15.25
2018-04-27T06:31:16.658Z,17.25
2018-04-27T06:32:16.605Z,19.18
2018-04-27T06:33:16.549Z,21.19
2018-04-27T06:34:16.479Z,22.54
2018-04-27T06:35:16.395Z,24.27
2018-04-27T06:36:16.336Z,24.85
2018-04-27T06:37:16.264Z,24.27
2018-04-27T06:38:16.198Z,23.88
2018-04-27T06:39:16.153Z,23.98
2018-04-27T06:40:16.165Z,23.68
2018-04-27T06:41:16.025Z,24.16
2018-04-27T06:42:15.955Z,25.02
2018-04-27T06:43:15.901Z,25.71
2018-04-27T06:44:15.808Z,26.19
2018-04-27T06:45:15.764Z,27.15
2018-04-27T06:46:15.698Z,28.88
2018-04-27T06:47:15.645Z,28.49
2018-04-27T06:48:15.556Z,29.06
2018-04-27T06:49:15.493Z,29.94
2018-04-27T06:50:15.447Z,30.71
2018-04-27T06:51:15.366Z,31.75
2018-04-27T06:52:15.297Z,32.15
2018-04-27T06:53:15.252Z,32.06
2018-04-27T06:54:15.169Z,32.15
2018-04-27T06:55:15.127Z,32.06
2018-04-27T06:56:15.059Z,32.34
2018-04-27T06:57:14.994Z,32.92
2018-04-27T06:58:14.924Z,33.01
2018-04-27T06:59:14.871Z,32.64
2018-04-27T07:00:14.816Z,33.01
2018-04-27T07:01:14.732Z,33.11
2018-04-27T07:02:14.676Z,34.75
2018-04-27T07:03:14.632Z,34.65
2018-04-27T07:04:14.551Z,34.45
2018-04-27T07:05:14.484Z,35.13
2018-04-27T07:06:14.417Z,35.32
2018-04-27T07:07:14.341Z,35.42
2018-04-27T07:08:14.293Z,35.42
2018-04-27T07:09:14.228Z,35.61
2018-04-27T07:10:14.145Z,35.63
2018-04-27T07:11:14.105Z,36.58
2018-04-27T07:12:14.012Z,35.89
2018-04-27T07:13:13.950Z,36.11
2018-04-27T07:14:13.913Z,36.11
2018-04-27T07:15:13.822Z,36.30
2018-04-27T07:16:13.773Z,36.58
2018-04-27T07:17:13.741Z,36.97
2018-04-27T07:18:13.649Z,37.35
2018-04-27T07:19:13.591Z,37.64
2018-04-27T07:20:13.508Z,38.32
2018-04-27T07:21:13.473Z,38.89
2018-04-27T07:22:13.382Z,39.37
2018-04-27T07:23:13.333Z,39.95
2018-04-27T07:24:13.277Z,40.14
2018-04-27T07:25:13.196Z,40.33
2018-04-27T07:26:13.154Z,40.25
2018-04-27T07:27:13.068Z,40.55
2018-04-27T07:28:13.002Z,41.02
2018-04-27T07:29:12.957Z,41.12
2018-04-27T07:30:12.876Z,41.79
2018-04-27T07:31:12.816Z,41.60
2018-04-27T07:32:12.777Z,41.41
2018-04-27T07:33:12.705Z,41.89
2018-04-27T07:34:12.622Z,41.50
2018-04-27T07:35:12.562Z,41.50
2018-04-27T07:36:12.500Z,41.70
2018-04-27T07:37:12.448Z,41.89
2018-04-27T07:38:12.389Z,42.66
2018-04-27T07:39:12.328Z,42.76
2018-04-27T07:40:12.244Z,43.16
2018-04-27T07:41:12.202Z,43.54
2018-04-27T07:42:12.134Z,43.45
2018-04-27T07:43:12.083Z,42.08
2018-04-27T07:44:12.011Z,43.04
2018-04-27T07:45:12.032Z,42.83
2018-04-27T07:46:11.890Z,43.04
2018-04-27T07:47:11.806Z,42.54
2018-04-27T07:48:11.763Z,42.85
2018-04-27T07:49:11.701Z,43.62
2018-04-27T07:50:11.631Z,43.71
2018-04-27T07:51:11.556Z,43.23
2018-04-27T07:52:11.496Z,43.62
2018-04-27T07:53:11.441Z,44.38
2018-04-27T07:54:11.391Z,45.18
2018-04-27T07:55:11.299Z,44.99
2018-04-27T07:56:11.263Z,45.28
2018-04-27T07:57:11.175Z,45.37
2018-04-27T07:58:11.128Z,45.76
2018-04-27T07:59:11.046Z,46.14
2018-04-27T08:00:10.990Z,46.43
2018-04-27T08:01:10.928Z,46.33
2018-04-27T08:02:10.941Z,46.62
2018-04-27T08:03:10.815Z,46.53
2018-04-27T08:04:10.738Z,46.53
2018-04-27T08:05:10.696Z,47.10
2018-04-27T08:06:10.612Z,47.20
2018-04-27T08:07:10.573Z,47.39
2018-04-27T08:08:10.494Z,47.77
2018-04-27T08:09:10.458Z,47.77
2018-04-27T08:10:10.385Z,47.58
2018-04-27T08:11:10.300Z,48.18
2018-04-27T08:12:10.236Z,48.07
2018-04-27T08:13:10.180Z,48.18
2018-04-27T08:14:10.132Z,48.38
2018-04-27T08:15:10.060Z,48.66
2018-04-27T08:16:10.012Z,48.66
2018-04-27T08:17:09.943Z,48.76
2018-04-27T08:18:09.869Z,49.15
2018-04-27T08:19:09.801Z,49.24
2018-04-27T08:20:09.770Z,49.53
2018-04-27T08:21:09.678Z,49.72
2018-04-27T08:22:09.637Z,49.65
2018-04-27T08:23:09.578Z,49.94
2018-04-27T08:24:09.509Z,50.13
2018-04-27T08:25:09.443Z,50.01
2018-04-27T08:26:09.388Z,50.49
2018-04-27T08:27:09.308Z,50.40
2018-04-27T08:28:09.258Z,50.27
2018-04-27T08:29:09.180Z,50.46
2018-04-27T08:30:09.193Z,50.30
2018-04-27T08:31:09.067Z,50.30
2018-04-27T08:32:09.022Z,50.30
2018-04-27T08:33:08.928Z,50.40
2018-04-27T08:34:08.891Z,50.40
2018-04-27T08:35:08.840Z,50.49
2018-04-27T08:36:08.762Z,50.59
2018-04-27T08:37:08.712Z,50.59
2018-04-27T08:38:08.636Z,50.59
2018-04-27T08:39:08.567Z,50.42
2018-04-27T08:40:08.495Z,51.38
2018-04-27T08:41:08.450Z,51.26
2018-04-27T08:42:08.394Z,51.26
2018-04-27T08:43:08.335Z,51.07
2018-04-27T08:44:08.265Z,51.19
2018-04-27T08:45:08.207Z,51.29
2018-04-27T08:46:08.147Z,51.35
2018-04-27T08:47:08.079Z,51.26
2018-04-27T08:48:08.017Z,51.35
2018-04-27T08:49:07.944Z,50.40
2018-04-27T08:50:07.889Z,50.59
2018-04-27T08:51:07.854Z,50.59
2018-04-27T08:52:07.792Z,50.78
2018-04-27T08:53:07.700Z,50.68
2018-04-27T08:54:07.661Z,50.68
2018-04-27T08:55:07.583Z,50.71
2018-04-27T08:56:07.537Z,51.26
2018-04-27T08:57:07.456Z,50.61
2018-04-27T08:58:07.396Z,50.51
2018-04-27T08:59:07.320Z,50.61
2018-04-27T09:00:07.265Z,50.13
2018-04-27T09:01:07.201Z,50.71
2018-04-27T09:02:07.142Z,51.38
2018-04-27T09:03:07.095Z,51.09
2018-04-27T09:04:07.030Z,51.07
2018-04-27T09:05:06.970Z,51.19
2018-04-27T09:06:06.895Z,51.29
2018-04-27T09:07:06.843Z,50.99
2018-04-27T09:08:06.767Z,51.29
2018-04-27T09:09:06.740Z,51.29
2018-04-27T09:10:06.667Z,51.09
2018-04-27T09:11:06.603Z,51.21
2018-04-27T09:12:06.528Z,51.31
2018-04-27T09:13:06.479Z,51.21
2018-04-27T09:14:06.404Z,51.60
2018-04-27T09:15:06.336Z,51.50
2018-04-27T09:16:06.274Z,51.70
2018-04-27T09:17:06.210Z,51.89
2018-04-27T09:18:06.174Z,51.98
2018-04-27T09:19:06.108Z,52.37
2018-04-27T09:20:06.030Z,52.47
2018-04-27T09:21:05.982Z,52.37
2018-04-27T09:22:05.904Z,52.47
2018-04-27T09:23:05.855Z,52.59
2018-04-27T09:24:05.785Z,52.85
2018-04-27T09:25:05.738Z,52.69
2018-04-27T09:26:05.660Z,52.66
2018-04-27T09:27:05.611Z,53.33
2018-04-27T09:28:05.563Z,53.81
2018-04-27T09:29:05.495Z,53.33
2018-04-27T09:30:05.430Z,53.33
2018-04-27T09:31:05.378Z,53.05
2018-04-27T09:32:05.293Z,53.14
2018-04-27T09:33:05.252Z,53.88
2018-04-27T09:34:05.174Z,54.08
2018-04-27T09:35:05.108Z,54.00
2018-04-27T09:36:05.050Z,54.20
2018-04-27T09:37:04.986Z,53.72
2018-04-27T09:38:04.924Z,53.65
2018-04-27T09:39:04.863Z,54.00
2018-04-27T09:40:04.802Z,53.84
2018-04-27T09:41:04.812Z,53.94
2018-04-27T09:42:04.670Z,53.45
2018-04-27T09:43:04.609Z,53.36
2018-04-27T09:44:04.569Z,53.17
2018-04-27T09:45:04.495Z,52.97
2018-04-27T09:46:04.443Z,53.17
2018-04-27T09:47:04.370Z,53.45
2018-04-27T09:48:04.328Z,53.45
2018-04-27T09:49:04.244Z,53.45
2018-04-27T09:50:04.219Z,53.65
2018-04-27T09:51:04.132Z,53.84
2018-04-27T09:52:04.081Z,53.94
2018-04-27T09:53:04.009Z,54.16
2018-04-27T09:54:03.934Z,53.84
2018-04-27T09:55:03.903Z,53.94
2018-04-27T09:56:03.820Z,54.42
2018-04-27T09:57:03.764Z,54.80
2018-04-27T09:58:03.711Z,54.71
2018-04-27T09:59:03.639Z,54.13
2018-04-27T10:00:03.579Z,54.03
2018-04-27T10:01:03.527Z,53.96
2018-04-27T10:02:03.478Z,53.67
2018-04-27T10:03:03.395Z,54.03
2018-04-27T10:04:03.324Z,54.52
2018-04-27T10:05:03.285Z,54.22
2018-04-27T10:06:03.202Z,54.71
2018-04-27T10:07:03.134Z,54.03
2018-04-27T10:08:03.103Z,54.58
2018-04-27T10:09:03.016Z,54.61
2018-04-27T10:10:02.956Z,54.71
2018-04-27T10:11:02.921Z,54.52
2018-04-27T10:12:02.849Z,54.32
2018-04-27T10:13:02.793Z,54.54
2018-04-27T10:14:02.717Z,53.67
2018-04-27T10:15:02.737Z,53.96
2018-04-27T10:16:02.599Z,54.06
2018-04-27T10:17:02.529Z,53.48
2018-04-27T10:18:02.489Z,53.41
2018-04-27T10:19:02.424Z,53.13
2018-04-27T10:20:02.350Z,52.93
2018-04-27T10:21:02.290Z,53.03
2018-04-27T10:22:02.225Z,52.64
2018-04-27T10:23:02.180Z,52.83
2018-04-27T10:24:02.118Z,52.67
2018-04-27T10:25:02.047Z,52.83
2018-04-27T10:26:02.044Z,52.67
2018-04-27T10:27:01.926Z,53.03
2018-04-27T10:28:01.852Z,53.22
2018-04-27T10:29:01.794Z,53.41
2018-04-27T10:30:01.735Z,53.41
2018-04-27T10:31:01.740Z,53.51
2018-04-27T10:32:01.613Z,53.89
2018-04-27T10:33:01.556Z,53.41
2018-04-27T10:34:01.516Z,53.70
2018-04-27T10:35:01.444Z,53.41
2018-04-27T10:36:01.374Z,54.09
2018-04-27T10:37:01.315Z,54.21
2018-04-27T10:38:01.261Z,53.80
2018-04-27T10:39:01.195Z,53.99
2018-04-27T10:40:01.141Z,53.99
2018-04-27T10:41:01.078Z,54.11
2018-04-27T10:42:01.022Z,53.83
2018-04-27T10:43:00.966Z,54.40
2018-04-27T10:44:00.922Z,54.40
2018-04-27T10:45:00.835Z,54.40
2018-04-27T10:46:00.771Z,54.02
2018-04-27T10:47:00.696Z,54.02
2018-04-27T10:48:00.659Z,54.14
2018-04-27T10:49:00.598Z,54.05
2018-04-27T10:50:00.535Z,53.92
2018-04-27T10:51:00.493Z,54.11
2018-04-27T10:52:00.395Z,54.11
2018-04-27T10:53:00.330Z,53.92
2018-04-27T10:54:00.277Z,53.92
2018-04-27T10:55:00.235Z,54.69
2018-04-27T10:56:00.166Z,54.31
2018-04-27T10:57:00.091Z,54.31
2018-04-27T10:58:00.030Z,54.40
2018-04-27T10:58:59.973Z,54.40
2018-04-27T10:59:59.920Z,54.98
2018-04-27T11:00:59.881Z,54.98
2018-04-27T11:01:59.792Z,55.18
2018-04-27T11:02:59.801Z,54.50
2018-04-27T11:03:59.696Z,54.53
2018-04-27T11:04:59.610Z,54.21
2018-04-27T11:05:59.553Z,54.50
2018-04-27T11:06:59.497Z,54.21
2018-04-27T11:07:59.443Z,54.53
2018-04-27T11:08:59.363Z,54.82
2018-04-27T11:09:59.300Z,54.69
2018-04-27T11:10:59.376Z,54.53
2018-04-27T11:11:59.205Z,55.08
2018-04-27T11:12:59.125Z,55.46
2018-04-27T11:13:59.066Z,55.46
2018-04-27T11:14:59.015Z,55.78
2018-04-27T11:15:58.954Z,55.66
2018-04-27T11:16:59.000Z,55.59
2018-04-27T11:17:58.835Z,55.59
2018-04-27T11:18:58.768Z,55.59
2018-04-27T11:19:58.711Z,55.78
2018-04-27T11:20:58.638Z,55.78
2018-04-27T11:21:58.608Z,56.14
2018-04-27T11:22:58.520Z,56.46
2018-04-27T11:23:58.462Z,56.36
2018-04-27T11:24:58.412Z,56.16
2018-04-27T11:25:58.336Z,56.07
2018-04-27T11:26:58.291Z,56.16
2018-04-27T11:27:58.232Z,56.46
2018-04-27T11:28:58.167Z,56.46
2018-04-27T11:29:58.107Z,56.26
2018-04-27T11:30:58.035Z,56.94
2018-04-27T11:31:57.998Z,56.26
2018-04-27T11:32:57.911Z,56.26
2018-04-27T11:33:57.880Z,56.16
2018-04-27T11:34:57.814Z,56.36
2018-04-27T11:35:57.731Z,56.46
2018-04-27T11:36:57.685Z,56.46
2018-04-27T11:37:57.607Z,56.36
2018-04-27T11:38:57.561Z,56.36
2018-04-27T11:39:57.509Z,56.65
2018-04-27T11:40:57.425Z,56.56
2018-04-27T11:41:57.370Z,56.36
2018-04-27T11:42:57.338Z,56.26
2018-04-27T11:43:57.262Z,56.26
2018-04-27T11:44:57.226Z,56.36
2018-04-27T11:45:57.122Z,55.78
2018-04-27T11:46:57.063Z,55.20
2018-04-27T11:47:57.015Z,55.98
2018-04-27T11:48:56.956Z,55.30
2018-04-27T11:49:56.895Z,55.52
2018-04-27T11:50:56.831Z,55.30
2018-04-27T11:51:56.779Z,55.20
2018-04-27T11:52:56.721Z,56.46
2018-04-27T11:53:56.653Z,56.56
2018-04-27T11:54:56.588Z,55.78
2018-04-27T11:55:56.532Z,55.68
2018-04-27T11:56:56.473Z,56.46
2018-04-27T11:57:56.404Z,56.26
2018-04-27T11:58:56.348Z,56.29
2018-04-27T11:59:56.293Z,56.20
2018-04-27T12:00:56.221Z,56.39
2018-04-27T12:01:56.160Z,56.20
2018-04-27T12:02:56.087Z,56.29
2018-04-27T12:03:56.025Z,56.10
2018-04-27T12:04:55.965Z,56.58
2018-04-27T12:05:55.925Z,56.58
2018-04-27T12:06:55.848Z,56.48
2018-04-27T12:07:55.806Z,56.48
2018-04-27T12:08:55.721Z,56.48
2018-04-27T12:09:55.705Z,56.48
2018-04-27T12:10:55.631Z,56.68
2018-04-27T12:11:55.560Z,56.77
2018-04-27T12:12:55.480Z,56.77
2018-04-27T12:13:55.445Z,56.87
2018-04-27T12:14:55.363Z,56.58
2018-04-27T12:15:55.310Z,57.16
2018-04-27T12:16:55.239Z,56.96
2018-04-27T12:17:55.193Z,57.35
2018-04-27T12:18:55.132Z,56.96
2018-04-27T12:19:55.083Z,57.35
2018-04-27T12:20:55.003Z,56.96
2018-04-27T12:21:54.948Z,57.06
2018-04-27T12:22:54.897Z,56.96
2018-04-27T12:23:54.825Z,57.45
2018-04-27T12:24:54.771Z,57.45
2018-04-27T12:25:54.700Z,57.06
2018-04-27T12:26:54.649Z,57.26
2018-04-27T12:27:54.589Z,57.16
2018-04-27T12:28:54.510Z,57.26
2018-04-27T12:29:54.449Z,57.26
2018-04-27T12:30:54.576Z,56.96
2018-04-27T12:31:54.397Z,57.16
2018-04-27T12:32:54.282Z,57.09
2018-04-27T12:33:54.230Z,56.96
2018-04-27T12:34:54.186Z,56.80
2018-04-27T12:35:54.099Z,56.41
2018-04-27T12:36:54.016Z,56.80
2018-04-27T12:37:53.971Z,56.90
2018-04-27T12:38:53.929Z,56.99
2018-04-27T12:39:53.849Z,56.51
2018-04-27T12:40:53.776Z,56.32
2018-04-27T12:41:53.730Z,57.09
2018-04-27T12:42:53.672Z,56.22
2018-04-27T12:43:53.611Z,56.32
2018-04-27T12:44:53.530Z,56.32
2018-04-27T12:45:53.473Z,56.32
2018-04-27T12:46:53.409Z,56.71
2018-04-27T12:47:53.369Z,56.03
2018-04-27T12:48:53.297Z,55.65
2018-04-27T12:49:53.224Z,56.03
2018-04-27T12:50:53.197Z,55.45
2018-04-27T12:51:53.131Z,55.93
2018-04-27T12:52:53.064Z,56.03
2018-04-27T12:53:52.998Z,55.26